Time;durP1;ratioP1;P1;durP2;ratioP2;P2;SDS_P1;SDS_P2;PMS_P1;PMS_P2;Temp;Humidity;BMP_temperature;BMP_pressure;BME280_temperature;BME280_humidity;BME280_pressure;Samples;Min_cycle;Max_cycle;Signal;HPM_P1;HPM_P2
2023/03/21 00:02:06;;;;;;;5.30;2.00;;;15.10;44.80;;;;;;5058024;28;20451;-84
2023/03/21 00:04:33;;;;;;;4.03;2.37;;;15.10;44.30;;;;;;5056202;28;20495;-84
2023/03/21 00:06:59;;;;;;;2.73;2.03;;;14.90;44.40;;;;;;5061817;28;20459;-85
2023/03/21 00:09:26;;;;;;;4.33;2.20;;;14.80;44.40;;;;;;5045860;28;20460;-82
2023/03/21 00:11:55;;;;;;;5.90;2.50;;;14.80;44.90;;;;;;5055994;28;20476;-85
2023/03/21 00:14:22;;;;;;;3.13;1.90;;;14.70;45.10;;;;;;5028435;28;20763;-82
2023/03/21 00:16:50;;;;;;;9.40;2.70;;;14.80;45.50;;;;;;5022602;28;23328;-84
2023/03/21 00:19:18;;;;;;;2.47;1.90;;;14.80;45.60;;;;;;5028045;28;20966;-84
2023/03/21 00:21:45;;;;;;;3.60;2.20;;;14.80;45.90;;;;;;5043747;28;20819;-84
2023/03/21 00:24:12;;;;;;;4.23;2.20;;;14.90;45.80;;;;;;5038650;28;20466;-85
2023/03/21 00:26:39;;;;;;;3.83;2.30;;;14.90;45.10;;;;;;5028237;28;20551;-84
2023/03/21 00:29:07;;;;;;;2.30;2.10;;;14.90;45.00;;;;;;5027936;28;20528;-82
2023/03/21 00:31:34;;;;;;;4.40;2.17;;;15.00;45.60;;;;;;5053644;28;20466;-84
2023/03/21 00:34:01;;;;;;;2.90;2.30;;;14.90;45.50;;;;;;5055031;28;20456;-82
2023/03/21 00:36:31;;;;;;;2.67;2.37;;;15.00;45.80;;;;;;5020289;28;20472;-82
2023/03/21 00:38:59;;;;;;;3.30;2.17;;;15.10;45.40;;;;;;5044149;28;20829;-85
2023/03/21 00:41:26;;;;;;;3.10;2.17;;;15.20;45.30;;;;;;5060525;28;20539;-82
2023/03/21 00:43:54;;;;;;;3.10;2.00;;;15.20;46.00;;;;;;5043630;28;20443;-85
2023/03/21 00:46:22;;;;;;;4.50;2.30;;;15.30;45.90;;;;;;5068960;28;20457;-83
2023/03/21 00:48:49;;;;;;;2.63;1.87;;;15.30;45.60;;;;;;5027686;28;20464;-84
2023/03/21 00:51:24;;;;;;;3.23;2.10;;;15.30;45.60;;;;;;5039245;28;20478;-83
2023/03/21 00:53:52;;;;;;;3.30;2.00;;;15.30;46.40;;;;;;5039947;28;20483;-84
2023/03/21 00:56:19;;;;;;;2.40;2.00;;;15.30;45.30;;;;;;5036341;28;20476;-85
2023/03/21 00:58:46;;;;;;;2.53;2.00;;;15.30;45.40;;;;;;5061818;28;20455;-84
2023/03/21 01:01:13;;;;;;;4.70;2.17;;;15.30;45.80;;;;;;5044469;28;20447;-84
2023/03/21 01:03:46;;;;;;;3.40;2.00;;;15.30;45.50;;;;;;5045962;28;21013;-84
2023/03/21 01:06:18;;;;;;;4.13;2.00;;;15.30;45.60;;;;;;5055856;28;20518;-84
2023/03/21 01:08:46;;;;;;;3.07;2.30;;;15.30;45.40;;;;;;5045737;28;20878;-84
2023/03/21 01:11:17;;;;;;;6.83;2.73;;;15.30;45.90;;;;;;5021736;28;20440;-84
2023/03/21 01:13:45;;;;;;;3.50;3.10;;;15.20;45.60;;;;;;5061820;28;20811;-83
2023/03/21 01:16:12;;;;;;;3.27;2.97;;;15.00;45.90;;;;;;5037954;28;20476;-83
2023/03/21 01:18:42;;;;;;;5.20;2.70;;;15.00;47.00;;;;;;5037555;28;21265;-83
2023/03/21 01:21:12;;;;;;;3.00;2.67;;;15.00;47.50;;;;;;5038911;28;20452;-82
2023/03/21 01:23:40;;;;;;;6.13;2.60;;;15.10;47.40;;;;;;5044688;28;20930;-84
2023/03/21 01:26:07;;;;;;;4.93;2.60;;;15.10;47.20;;;;;;5019679;28;20477;-84
2023/03/21 01:28:35;;;;;;;2.97;2.17;;;15.00;46.90;;;;;;5044121;28;20462;-83
2023/03/21 01:31:04;;;;;;;3.03;2.20;;;14.90;47.30;;;;;;5055829;28;20459;-83
2023/03/21 01:33:32;;;;;;;2.63;2.40;;;15.00;47.30;;;;;;5069137;28;20480;-82
2023/03/21 01:36:01;;;;;;;5.53;2.37;;;15.00;47.20;;;;;;5039702;28;20479;-84
2023/03/21 01:38:30;;;;;;;4.00;2.53;;;15.00;47.80;;;;;;5053437;28;20449;-84
2023/03/21 01:40:59;;;;;;;4.23;2.57;;;15.00;47.70;;;;;;5045134;28;20552;-85
2023/03/21 01:43:33;;;;;;;3.20;2.23;;;15.00;47.70;;;;;;5021127;28;20964;-83
2023/03/21 01:46:22;;;;;;;5.33;2.43;;;15.00;47.40;;;;;;5027465;28;20469;-85
2023/03/21 01:49:10;;;;;;;3.13;2.30;;;15.00;47.70;;;;;;5044687;28;20465;-82
2023/03/21 01:51:43;;;;;;;2.53;2.20;;;15.00;47.70;;;;;;5036332;28;21090;-84
2023/03/21 01:54:15;;;;;;;6.50;2.87;;;14.90;47.40;;;;;;5022736;28;20441;-84
2023/03/21 01:56:45;;;;;;;3.00;2.13;;;14.90;47.70;;;;;;5068204;28;21002;-85
2023/03/21 01:59:20;;;;;;;4.13;1.97;;;14.70;46.90;;;;;;5034084;28;20459;-84
2023/03/21 02:02:11;;;;;;;7.30;2.57;;;14.50;47.20;;;;;;5044858;28;20447;-83
2023/03/21 02:04:54;;;;;;;4.90;2.57;;;14.50;47.60;;;;;;5042849;28;20953;-82
2023/03/21 02:07:27;;;;;;;2.77;2.00;;;14.40;47.90;;;;;;5053767;28;20981;-84
2023/03/21 02:10:00;;;;;;;4.17;2.33;;;14.40;48.00;;;;;;5054924;28;20830;-83
2023/03/21 02:12:27;;;;;;;3.27;2.00;;;14.40;47.80;;;;;;5050330;28;20464;-83
2023/03/21 02:14:55;;;;;;;2.97;2.00;;;14.30;47.70;;;;;;5036833;28;20472;-83
2023/03/21 02:17:48;;;;;;;4.20;2.33;;;14.10;47.10;;;;;;5058563;28;20900;-83
2023/03/21 02:20:45;;;;;;;4.20;2.10;;;13.70;47.60;;;;;;5041879;28;20989;-82
2023/03/21 02:23:53;;;;;;;5.53;2.10;;;13.50;48.30;;;;;;5020849;28;20444;-84
2023/03/21 02:26:51;;;;;;;2.97;2.00;;;13.60;48.00;;;;;;5044380;28;20565;-83
2023/03/21 02:29:46;;;;;;;7.40;3.40;;;13.50;48.20;;;;;;5040929;28;20470;-84
2023/03/21 02:32:27;;;;;;;4.50;2.60;;;13.30;48.70;;;;;;5058872;28;20868;-83
2023/03/21 02:35:14;;;;;;;6.90;2.77;;;13.00;49.20;;;;;;5039666;28;21017;-84
2023/03/21 02:37:46;;;;;;;5.63;2.50;;;13.20;49.30;;;;;;5043312;28;20550;-84
2023/03/21 02:40:20;;;;;;;6.33;2.43;;;13.40;48.40;;;;;;5041204;28;20555;-85
2023/03/21 02:42:59;;;;;;;3.47;2.40;;;13.40;48.10;;;;;;5026103;28;20447;-84
2023/03/21 02:45:30;;;;;;;7.73;2.77;;;13.60;48.20;;;;;;5037338;28;20590;-83
2023/03/21 02:48:04;;;;;;;5.93;2.87;;;13.20;48.20;;;;;;5042682;28;20540;-83
2023/03/21 02:50:38;;;;;;;2.93;2.03;;;13.30;48.70;;;;;;5034878;28;20558;-83
2023/03/21 02:53:10;;;;;;;6.00;2.10;;;13.50;48.90;;;;;;5035628;28;20526;-84
2023/03/21 02:55:41;;;;;;;3.93;2.30;;;13.70;49.00;;;;;;5038406;28;20471;-84
2023/03/21 02:58:11;;;;;;;5.13;2.90;;;13.80;49.00;;;;;;5036937;28;20448;-82
2023/03/21 03:00:39;;;;;;;6.37;2.57;;;13.90;48.50;;;;;;5037235;28;20448;-84
2023/03/21 03:03:25;;;;;;;6.07;2.57;;;13.70;48.60;;;;;;5053312;28;21049;-84
2023/03/21 03:06:18;;;;;;;3.57;2.40;;;13.80;48.40;;;;;;5058550;28;20519;-83
2023/03/21 03:09:15;;;;;;;3.23;2.47;;;13.70;48.20;;;;;;5041961;28;20456;-83
2023/03/21 03:11:44;;;;;;;4.30;2.70;;;13.70;48.20;;;;;;5061690;28;20439;-84
2023/03/21 03:14:42;;;;;;;3.63;3.17;;;13.70;47.80;;;;;;5053228;28;20471;-83
2023/03/21 03:17:19;;;;;;;3.60;2.93;;;13.60;48.70;;;;;;5038131;28;21115;-83
2023/03/21 03:19:59;;;;;;;5.70;2.90;;;13.60;48.40;;;;;;5043673;28;20455;-84
2023/03/21 03:22:35;;;;;;;7.00;2.53;;;13.30;48.80;;;;;;5039937;28;20441;-84
2023/03/21 03:25:09;;;;;;;3.60;2.50;;;13.40;48.90;;;;;;5054253;28;20483;-84
2023/03/21 03:27:41;;;;;;;2.87;2.30;;;13.30;48.70;;;;;;5029001;28;20969;-84
2023/03/21 03:30:10;;;;;;;3.23;2.10;;;13.20;48.70;;;;;;5030105;28;20449;-84
2023/03/21 03:32:45;;;;;;;2.30;1.90;;;13.30;48.40;;;;;;5022768;28;20483;-83
2023/03/21 03:35:16;;;;;;;4.33;2.50;;;13.20;48.80;;;;;;5045704;28;21071;-84
2023/03/21 03:37:47;;;;;;;5.53;2.20;;;12.80;49.70;;;;;;5052838;28;21028;-83
2023/03/21 03:40:18;;;;;;;2.67;2.33;;;12.60;50.60;;;;;;5040280;28;20444;-83
2023/03/21 03:42:57;;;;;;;5.10;2.67;;;12.80;50.50;;;;;;5055879;28;20611;-85
2023/03/21 03:45:36;;;;;;;3.00;2.40;;;13.00;49.80;;;;;;5057185;28;21000;-83
2023/03/21 03:48:11;;;;;;;2.90;2.60;;;13.20;49.50;;;;;;5039939;28;20944;-84
2023/03/21 03:50:44;;;;;;;4.30;2.40;;;13.30;50.10;;;;;;5043237;28;20451;-84
2023/03/21 03:53:20;;;;;;;4.20;2.30;;;13.40;50.30;;;;;;5037572;28;20847;-84
2023/03/21 03:55:55;;;;;;;2.80;2.50;;;13.50;50.40;;;;;;5035968;28;20535;-84
2023/03/21 03:58:24;;;;;;;4.73;2.33;;;13.60;50.10;;;;;;5029816;28;20452;-83
2023/03/21 04:00:54;;;;;;;3.83;2.23;;;13.70;50.20;;;;;;5030965;28;20547;-84
2023/03/21 04:03:21;;;;;;;3.10;2.63;;;13.80;50.20;;;;;;5044735;28;20522;-83
2023/03/21 04:05:49;;;;;;;6.23;2.53;;;13.80;49.90;;;;;;5040482;28;20554;-84
2023/03/21 04:08:17;;;;;;;4.40;2.13;;;13.80;49.40;;;;;;5045252;28;20460;-83
2023/03/21 04:10:49;;;;;;;3.87;1.73;;;13.80;49.10;;;;;;5056381;28;20467;-83
2023/03/21 04:13:17;;;;;;;2.70;2.10;;;13.80;49.50;;;;;;5039698;28;20985;-83
2023/03/21 04:15:49;;;;;;;2.93;1.87;;;13.80;50.00;;;;;;5042432;28;20980;-83
2023/03/21 04:18:16;;;;;;;5.17;2.10;;;13.80;50.10;;;;;;5045900;28;20460;-84
2023/03/21 04:20:46;;;;;;;4.60;2.80;;;13.90;49.90;;;;;;5044662;28;20455;-84
2023/03/21 04:23:13;;;;;;;2.37;2.00;;;13.90;50.00;;;;;;5022687;28;20440;-83
2023/03/21 04:25:45;;;;;;;3.17;2.47;;;13.90;50.20;;;;;;5037735;28;20464;-83
2023/03/21 04:28:12;;;;;;;3.43;2.47;;;13.90;50.00;;;;;;5055613;28;20475;-81
2023/03/21 04:30:48;;;;;;;6.97;3.10;;;13.90;49.80;;;;;;5044338;28;20459;-84
2023/03/21 04:33:18;;;;;;;5.40;2.33;;;13.90;49.90;;;;;;5028514;28;21176;-85
2023/03/21 04:35:54;;;;;;;3.60;2.17;;;13.90;50.00;;;;;;5055080;28;20685;-83
2023/03/21 04:38:23;;;;;;;5.57;4.00;;;13.80;49.60;;;;;;5067220;28;20458;-82
2023/03/21 04:40:50;;;;;;;10.40;8.20;;;13.80;49.40;;;;;;5060319;28;20733;-85
2023/03/21 04:43:17;;;;;;;6.60;5.90;;;13.70;49.90;;;;;;5061519;28;20452;-84
2023/03/21 04:45:45;;;;;;;7.90;4.43;;;13.60;48.90;;;;;;5041835;28;20464;-84
2023/03/21 04:48:13;;;;;;;6.20;3.50;;;13.60;49.30;;;;;;5036079;28;20491;-85
2023/03/21 04:50:40;;;;;;;14.77;6.80;;;13.50;49.40;;;;;;5058853;28;20437;-85
2023/03/21 04:53:07;;;;;;;10.77;6.20;;;13.50;49.00;;;;;;5041578;28;20464;-85
2023/03/21 04:55:35;;;;;;;6.20;3.50;;;13.40;49.30;;;;;;5044583;28;20467;-84
2023/03/21 04:58:02;;;;;;;6.33;4.10;;;13.40;49.40;;;;;;5040014;28;20933;-83
2023/03/21 05:00:30;;;;;;;7.53;4.60;;;13.30;48.80;;;;;;5044394;28;20994;-84
2023/03/21 05:02:59;;;;;;;12.07;4.80;;;13.30;49.30;;;;;;5039298;28;20456;-85
2023/03/21 05:05:27;;;;;;;9.17;4.67;;;13.30;49.60;;;;;;5059188;28;20456;-84
2023/03/21 05:07:54;;;;;;;6.63;4.30;;;13.30;49.50;;;;;;5021009;28;20526;-85
2023/03/21 05:10:23;;;;;;;7.73;4.33;;;13.30;49.60;;;;;;5024967;28;20810;-86
2023/03/21 05:12:50;;;;;;;4.73;3.37;;;13.20;49.40;;;;;;5020641;28;20547;-86
2023/03/21 05:15:17;;;;;;;4.80;3.57;;;13.20;49.10;;;;;;5037941;28;20484;-84
2023/03/21 05:17:47;;;;;;;4.90;3.03;;;13.10;48.40;;;;;;5035033;28;21029;-84
2023/03/21 05:20:17;;;;;;;5.60;3.30;;;12.90;48.40;;;;;;5053293;28;20558;-83
2023/03/21 05:22:45;;;;;;;3.63;2.83;;;12.70;48.80;;;;;;5039513;28;20444;-85
2023/03/21 05:25:17;;;;;;;4.70;4.10;;;12.60;49.10;;;;;;5066410;28;20543;-85
2023/03/21 05:28:07;;;;;;;3.90;3.30;;;12.40;49.80;;;;;;5027175;28;20678;-84
2023/03/21 05:30:34;;;;;;;5.23;3.93;;;12.50;50.10;;;;;;5030993;28;20535;-84
2023/03/21 05:33:02;;;;;;;3.90;2.80;;;12.60;50.30;;;;;;5051709;28;20724;-86
2023/03/21 05:35:31;;;;;;;4.30;2.83;;;12.70;50.10;;;;;;5052419;28;20559;-86
2023/03/21 05:38:00;;;;;;;4.33;3.17;;;12.70;50.10;;;;;;5026245;28;20444;-85
2023/03/21 05:40:31;;;;;;;4.87;3.17;;;12.70;49.90;;;;;;5042342;28;20460;-84
2023/03/21 05:42:59;;;;;;;7.50;3.10;;;12.80;49.90;;;;;;5053245;28;20455;-86
2023/03/21 05:45:26;;;;;;;4.87;3.50;;;12.80;49.90;;;;;;5041494;28;20464;-85
2023/03/21 05:47:54;;;;;;;4.30;2.80;;;12.80;49.90;;;;;;5041246;28;20467;-86
2023/03/21 05:50:24;;;;;;;4.37;2.90;;;12.80;50.00;;;;;;5050700;28;20463;-86
2023/03/21 05:53:07;;;;;;;6.03;3.07;;;12.80;49.80;;;;;;5031231;28;20539;-85
2023/03/21 05:55:34;;;;;;;3.13;2.83;;;12.70;49.80;;;;;;5049439;28;20475;-86
2023/03/21 05:58:01;;;;;;;5.20;3.47;;;12.70;50.00;;;;;;5027549;28;20451;-85
2023/03/21 06:00:30;;;;;;;3.20;2.90;;;12.70;50.40;;;;;;5042669;28;20444;-84
2023/03/21 06:03:20;;;;;;;2.97;2.70;;;12.70;50.80;;;;;;5042057;28;20451;-86
2023/03/21 06:06:02;;;;;;;4.57;3.23;;;12.60;50.80;;;;;;5034639;28;20903;-86
2023/03/21 06:08:35;;;;;;;5.37;3.53;;;12.70;50.90;;;;;;5025380;28;20884;-85
2023/03/21 06:11:02;;;;;;;7.50;3.80;;;12.70;51.00;;;;;;5027349;28;20495;-85
2023/03/21 06:13:32;;;;;;;6.17;3.40;;;12.70;51.00;;;;;;5050601;28;20480;-85
2023/03/21 06:16:00;;;;;;;7.07;3.60;;;12.70;50.90;;;;;;5036583;28;20480;-85
2023/03/21 06:18:27;;;;;;;4.80;3.00;;;12.70;51.10;;;;;;5041013;28;20468;-86
2023/03/21 06:21:17;;;;;;;4.20;3.40;;;12.50;51.10;;;;;;5041305;28;20443;-84
2023/03/21 06:23:45;;;;;;;7.83;5.07;;;12.50;51.50;;;;;;5041923;28;20502;-84
2023/03/21 06:26:12;;;;;;;7.87;4.17;;;12.50;51.30;;;;;;5025888;28;20496;-85
2023/03/21 06:28:39;;;;;;;5.20;3.47;;;12.60;51.10;;;;;;5034810;28;20510;-84
2023/03/21 06:31:06;;;;;;;6.70;5.33;;;12.50;50.90;;;;;;5042055;28;20542;-85
2023/03/21 06:33:34;;;;;;;10.33;5.80;;;12.50;51.20;;;;;;5037212;28;20559;-84
2023/03/21 06:36:01;;;;;;;7.83;4.90;;;12.60;51.50;;;;;;5029153;28;20498;-84
2023/03/21 06:38:29;;;;;;;9.43;5.93;;;12.60;51.40;;;;;;5072636;28;20452;-84
2023/03/21 06:40:57;;;;;;;7.43;5.40;;;12.70;51.50;;;;;;5046729;28;20455;-84
2023/03/21 06:43:27;;;;;;;6.23;5.47;;;12.80;51.50;;;;;;5056447;28;20459;-84
2023/03/21 06:45:54;;;;;;;10.40;5.50;;;12.80;51.60;;;;;;5062477;28;21291;-84
2023/03/21 06:48:21;;;;;;;10.20;5.23;;;12.80;51.80;;;;;;5063639;28;20466;-83
2023/03/21 06:50:52;;;;;;;8.17;5.23;;;12.80;51.80;;;;;;5071586;28;20532;-85
2023/03/21 06:53:26;;;;;;;7.77;5.70;;;12.80;51.80;;;;;;5048723;28;20979;-85
2023/03/21 06:56:14;;;;;;;9.00;5.43;;;12.80;51.90;;;;;;5065325;28;20461;-85
2023/03/21 06:58:42;;;;;;;6.97;5.10;;;12.80;52.00;;;;;;5061991;28;21000;-85
2023/03/21 07:01:17;;;;;;;9.33;5.73;;;12.90;52.20;;;;;;5053246;28;20459;-86
2023/03/21 07:03:55;;;;;;;8.27;5.00;;;12.90;52.30;;;;;;5046067;28;20453;-85
2023/03/21 07:06:25;;;;;;;6.80;5.40;;;12.90;52.10;;;;;;5065390;28;20471;-86
2023/03/21 07:08:52;;;;;;;5.77;5.20;;;13.00;52.10;;;;;;5057253;28;20539;-85
2023/03/21 07:11:22;;;;;;;10.20;9.30;;;13.00;52.20;;;;;;5060396;28;20448;-86
2023/03/21 07:13:50;;;;;;;11.47;9.60;;;13.10;52.40;;;;;;5063899;28;20555;-86
2023/03/21 07:16:20;;;;;;;18.60;14.10;;;13.10;52.30;;;;;;5033510;28;20460;-86
2023/03/21 07:18:48;;;;;;;13.80;12.30;;;13.20;52.50;;;;;;5071765;28;20478;-85
2023/03/21 07:21:14;;;;;;;13.17;9.70;;;13.10;52.40;;;;;;5032601;28;20481;-85
2023/03/21 07:23:43;;;;;;;10.20;5.90;;;13.20;52.40;;;;;;5059814;28;21234;-85
2023/03/21 07:26:10;;;;;;;11.10;5.20;;;13.20;52.10;;;;;;5059686;28;20470;-85
2023/03/21 07:28:38;;;;;;;6.43;4.87;;;13.10;52.10;;;;;;5039891;28;20443;-85
2023/03/21 07:31:08;;;;;;;9.83;5.63;;;13.00;52.30;;;;;;5049814;28;20467;-85
2023/03/21 07:33:35;;;;;;;9.83;5.70;;;12.90;53.00;;;;;;5046239;28;20595;-84
2023/03/21 07:36:03;;;;;;;7.93;5.40;;;12.90;53.20;;;;;;5042129;28;20472;-85
2023/03/21 07:38:30;;;;;;;13.90;5.90;;;12.90;53.30;;;;;;5072092;28;20444;-85
2023/03/21 07:40:59;;;;;;;10.43;6.10;;;13.00;53.50;;;;;;5063393;28;20448;-85
2023/03/21 07:43:30;;;;;;;9.50;6.23;;;13.20;53.30;;;;;;5073934;28;20450;-85
2023/03/21 07:46:00;;;;;;;7.73;5.27;;;13.40;53.50;;;;;;5063227;28;20471;-85
2023/03/21 07:48:27;;;;;;;7.40;5.53;;;13.50;53.20;;;;;;5042217;28;20504;-85
2023/03/21 07:50:55;;;;;;;9.63;5.53;;;13.60;52.80;;;;;;5026276;28;20454;-86
2023/03/21 07:53:22;;;;;;;9.30;4.83;;;13.70;52.50;;;;;;5061008;28;20442;-85
2023/03/21 07:55:50;;;;;;;11.40;5.33;;;13.80;52.30;;;;;;5020310;28;20475;-85
2023/03/21 07:58:17;;;;;;;10.90;5.00;;;13.90;52.60;;;;;;5051966;28;20594;-85
2023/03/21 08:00:44;;;;;;;11.33;5.37;;;13.90;52.20;;;;;;5038899;28;20452;-85
2023/03/21 08:03:12;;;;;;;6.60;4.80;;;13.80;51.70;;;;;;5068606;28;20448;-84
2023/03/21 08:05:40;;;;;;;5.50;4.47;;;13.80;51.50;;;;;;5062816;28;21979;-83
2023/03/21 08:08:07;;;;;;;6.17;4.30;;;13.80;51.70;;;;;;5047377;28;20949;-84
2023/03/21 08:10:35;;;;;;;18.47;4.33;;;13.90;52.10;;;;;;5023125;28;21075;-84
2023/03/21 08:13:02;;;;;;;6.00;4.70;;;13.90;51.70;;;;;;5023776;28;20451;-84
2023/03/21 08:15:30;;;;;;;7.87;4.50;;;13.90;51.80;;;;;;5056598;28;20485;-84
2023/03/21 08:17:59;;;;;;;8.03;5.20;;;13.90;51.60;;;;;;5061032;28;20448;-84
2023/03/21 08:20:28;;;;;;;8.27;6.10;;;14.00;51.70;;;;;;5032740;28;20455;-83
2023/03/21 08:22:55;;;;;;;7.53;5.37;;;14.10;52.20;;;;;;5060167;28;20462;-84
2023/03/21 08:25:22;;;;;;;6.63;6.03;;;14.10;51.30;;;;;;5045024;28;20460;-83
2023/03/21 08:27:51;;;;;;;8.33;4.40;;;14.20;51.30;;;;;;5038866;28;20443;-85
2023/03/21 08:30:21;;;;;;;13.87;5.23;;;14.30;51.30;;;;;;5033449;28;20837;-86
2023/03/21 08:32:49;;;;;;;8.00;4.70;;;14.30;51.10;;;;;;5020769;28;20809;-86
2023/03/21 08:35:19;;;;;;;9.10;4.80;;;14.30;51.40;;;;;;5027190;28;20472;-84
2023/03/21 08:37:47;;;;;;;15.03;5.80;;;14.40;51.30;;;;;;5066465;28;21071;-84
2023/03/21 08:40:16;;;;;;;11.47;5.20;;;14.50;51.40;;;;;;5062841;28;20858;-84
2023/03/21 08:42:45;;;;;;;9.33;5.07;;;14.60;50.70;;;;;;5041540;28;20448;-85
2023/03/21 08:45:12;;;;;;;9.37;3.83;;;14.70;50.70;;;;;;5041654;28;20463;-84
2023/03/21 08:47:40;;;;;;;6.20;4.10;;;14.70;49.20;;;;;;5034530;28;20453;-84
2023/03/21 08:50:11;;;;;;;7.27;3.83;;;14.70;49.90;;;;;;5056199;28;20475;-85
2023/03/21 08:52:37;;;;;;;6.60;4.00;;;14.90;49.80;;;;;;5026306;28;20455;-84
2023/03/21 08:55:08;;;;;;;5.90;3.37;;;14.90;48.90;;;;;;5044159;28;21202;-85
2023/03/21 08:57:34;;;;;;;7.90;3.07;;;14.90;49.00;;;;;;5040475;28;20471;-85
2023/03/21 09:00:06;;;;;;;6.50;4.03;;;15.00;49.00;;;;;;5044299;28;21157;-85
2023/03/21 09:02:33;;;;;;;4.37;3.13;;;15.00;48.60;;;;;;5027241;28;20461;-84
2023/03/21 09:05:00;;;;;;;6.30;3.60;;;15.00;48.50;;;;;;5043329;28;20471;-85
2023/03/21 09:07:27;;;;;;;5.00;4.20;;;15.20;47.90;;;;;;5046289;28;20531;-84
2023/03/21 09:09:54;;;;;;;6.13;4.23;;;15.40;48.50;;;;;;5036290;28;20534;-85
2023/03/21 09:12:22;;;;;;;6.10;5.20;;;15.70;48.30;;;;;;5056703;28;20762;-85
2023/03/21 09:14:49;;;;;;;4.93;3.43;;;15.70;48.10;;;;;;5035096;28;20486;-85
2023/03/21 09:17:16;;;;;;;8.30;3.87;;;15.80;47.60;;;;;;5042669;28;20448;-85
2023/03/21 09:19:43;;;;;;;8.00;4.20;;;15.90;47.80;;;;;;5064106;28;21660;-86
2023/03/21 09:22:13;;;;;;;6.57;3.17;;;16.00;47.50;;;;;;5052131;28;20991;-84
2023/03/21 09:24:40;;;;;;;5.73;3.80;;;16.20;46.90;;;;;;5046845;28;20442;-83
2023/03/21 09:27:07;;;;;;;5.40;3.60;;;16.30;46.70;;;;;;5067310;28;20627;-85
2023/03/21 09:29:36;;;;;;;7.60;3.83;;;16.50;46.60;;;;;;5053660;28;20436;-84
2023/03/21 09:32:05;;;;;;;6.30;4.63;;;16.60;46.10;;;;;;5057694;28;20444;-85
2023/03/21 09:34:32;;;;;;;4.57;3.70;;;16.70;45.20;;;;;;5051129;28;21010;-85
2023/03/21 09:36:59;;;;;;;6.07;4.50;;;16.90;45.70;;;;;;5050181;28;20451;-84
2023/03/21 09:39:26;;;;;;;8.17;4.30;;;17.10;45.30;;;;;;5031769;28;20452;-84
2023/03/21 09:42:04;;;;;;;5.40;3.57;;;17.30;43.50;;;;;;5034791;28;20470;-85
2023/03/21 09:44:42;;;;;;;4.10;3.30;;;17.40;44.30;;;;;;5051238;28;21195;-85
2023/03/21 09:47:19;;;;;;;5.50;2.83;;;17.70;45.00;;;;;;5026578;28;20435;-85
2023/03/21 09:49:50;;;;;;;6.23;3.80;;;17.70;44.10;;;;;;5032841;28;20453;-84
2023/03/21 09:52:22;;;;;;;5.20;3.10;;;17.80;43.80;;;;;;5043083;28;20456;-85
2023/03/21 09:54:49;;;;;;;6.47;4.30;;;17.90;43.70;;;;;;5050076;28;20469;-85
2023/03/21 09:57:26;;;;;;;8.27;4.33;;;18.00;43.60;;;;;;5053558;28;20459;-84
2023/03/21 09:59:57;;;;;;;5.03;3.03;;;17.80;42.30;;;;;;5052536;28;20450;-85
2023/03/21 10:02:35;;;;;;;12.63;3.80;;;17.60;43.50;;;;;;5051223;28;20443;-85
2023/03/21 10:05:08;;;;;;;5.43;2.70;;;17.60;43.80;;;;;;5025985;28;20467;-85
2023/03/21 10:07:40;;;;;;;3.07;2.80;;;17.70;43.40;;;;;;5068010;28;20444;-85
2023/03/21 10:10:14;;;;;;;6.53;3.00;;;17.60;43.20;;;;;;5065801;28;20448;-84
2023/03/21 10:12:44;;;;;;;5.73;2.37;;;18.00;43.40;;;;;;5023706;28;20552;-84
2023/03/21 10:15:18;;;;;;;5.67;2.80;;;18.30;43.20;;;;;;5050971;28;20482;-86
2023/03/21 10:17:50;;;;;;;3.90;2.87;;;18.20;42.60;;;;;;5026236;28;20458;-86
2023/03/21 10:20:20;;;;;;;5.03;4.53;;;18.30;42.10;;;;;;5059757;28;20491;-85
2023/03/21 10:22:50;;;;;;;4.83;3.63;;;18.20;42.10;;;;;;5023231;28;20536;-84
2023/03/21 10:25:20;;;;;;;2.57;2.20;;;18.40;42.10;;;;;;5037017;28;20487;-85
2023/03/21 10:27:49;;;;;;;5.40;2.60;;;18.70;42.80;;;;;;5067264;28;20534;-85
2023/03/21 10:30:26;;;;;;;9.63;2.90;;;19.00;42.10;;;;;;5052142;28;21154;-83
2023/03/21 10:32:56;;;;;;;3.73;2.50;;;18.90;41.50;;;;;;5025923;28;20456;-85
2023/03/21 10:35:22;;;;;;;5.63;2.80;;;18.90;40.90;;;;;;5033743;28;21255;-84
2023/03/21 10:37:49;;;;;;;3.53;2.80;;;18.90;41.70;;;;;;5033442;28;20437;-84
2023/03/21 10:40:17;;;;;;;3.43;2.00;;;19.00;41.50;;;;;;5058347;28;20849;-86
2023/03/21 10:42:44;;;;;;;4.50;2.17;;;18.90;41.10;;;;;;5038093;28;21006;-85
2023/03/21 10:45:18;;;;;;;5.83;2.03;;;18.80;40.90;;;;;;5042894;28;21066;-84
2023/03/21 10:47:50;;;;;;;4.40;2.57;;;18.90;40.20;;;;;;5066651;28;21154;-85
2023/03/21 10:50:24;;;;;;;7.53;2.37;;;18.70;41.10;;;;;;5035144;28;20462;-85
2023/03/21 10:52:59;;;;;;;3.03;2.50;;;18.80;41.50;;;;;;5039457;28;20479;-86
2023/03/21 10:55:28;;;;;;;6.43;2.50;;;19.00;41.10;;;;;;5037790;28;20484;-86
2023/03/21 10:57:59;;;;;;;4.37;2.43;;;19.00;40.30;;;;;;5057481;28;20449;-85
2023/03/21 11:00:30;;;;;;;3.47;2.60;;;18.90;40.50;;;;;;5052636;28;21138;-85
2023/03/21 11:02:59;;;;;;;4.67;2.60;;;19.00;40.30;;;;;;5065552;28;20542;-85
2023/03/21 11:05:33;;;;;;;4.80;2.20;;;19.10;39.60;;;;;;5064540;28;20457;-84
2023/03/21 11:08:03;;;;;;;8.00;2.30;;;19.00;39.90;;;;;;5040504;28;20455;-84
2023/03/21 11:10:33;;;;;;;2.43;2.03;;;19.00;39.70;;;;;;5051869;28;20452;-84
2023/03/21 11:13:05;;;;;;;4.10;2.00;;;19.10;39.50;;;;;;5050793;28;20455;-84
2023/03/21 11:15:38;;;;;;;3.03;1.77;;;19.20;39.50;;;;;;5048635;28;20480;-84
2023/03/21 11:18:17;;;;;;;7.03;2.30;;;19.30;39.60;;;;;;5026200;28;20493;-84
2023/03/21 11:20:50;;;;;;;8.93;1.80;;;19.50;39.70;;;;;;5019516;28;20454;-85
2023/03/21 11:23:17;;;;;;;5.83;2.07;;;19.70;38.50;;;;;;5040601;28;20458;-84
2023/03/21 11:25:47;;;;;;;3.40;1.77;;;19.70;38.10;;;;;;5024819;28;21407;-85
2023/03/21 11:28:17;;;;;;;7.07;2.50;;;19.70;38.60;;;;;;5061511;28;20443;-84
2023/03/21 11:30:53;;;;;;;6.40;2.23;;;19.70;39.20;;;;;;5036077;28;20443;-84
2023/03/21 11:33:25;;;;;;;3.33;2.13;;;19.90;38.40;;;;;;5056070;28;21166;-85
2023/03/21 11:36:04;;;;;;;5.10;1.80;;;19.90;38.90;;;;;;5042836;28;20480;-85
2023/03/21 11:38:33;;;;;;;7.07;2.77;;;20.10;39.20;;;;;;5071616;28;20482;-86
2023/03/21 11:41:01;;;;;;;4.07;2.00;;;20.10;38.50;;;;;;5052763;28;20723;-85
2023/03/21 11:43:30;;;;;;;4.13;2.27;;;20.00;38.30;;;;;;5026370;28;20541;-85
2023/03/21 11:45:59;;;;;;;5.40;2.13;;;20.10;38.80;;;;;;5070085;28;20486;-84
2023/03/21 11:48:28;;;;;;;2.83;1.77;;;20.00;37.40;;;;;;5052317;28;20446;-85
2023/03/21 11:51:00;;;;;;;3.80;2.10;;;19.70;37.80;;;;;;5021822;28;20953;-85
2023/03/21 11:53:40;;;;;;;3.57;1.90;;;19.90;38.70;;;;;;5070490;28;20445;-86
2023/03/21 11:56:27;;;;;;;4.93;2.13;;;19.90;38.00;;;;;;5053875;28;20487;-85
2023/03/21 11:59:14;;;;;;;6.43;3.30;;;19.80;37.90;;;;;;5058902;28;20447;-85
2023/03/21 12:02:03;;;;;;;14.33;6.23;;;19.80;37.70;;;;;;5016319;28;20966;-84
2023/03/21 12:04:40;;;;;;;3.07;2.60;;;20.00;38.20;;;;;;5054722;28;20459;-86
2023/03/21 12:07:23;;;;;;;2.50;1.77;;;20.20;38.20;;;;;;5046830;28;20482;-84
2023/03/21 12:09:57;;;;;;;2.77;1.77;;;20.20;37.80;;;;;;5051757;28;20452;-85
2023/03/21 12:12:33;;;;;;;3.10;1.73;;;20.20;38.70;;;;;;5050262;28;21507;-85
2023/03/21 12:15:05;;;;;;;2.07;1.67;;;20.10;38.80;;;;;;5058700;28;21004;-84
2023/03/21 12:17:41;;;;;;;2.23;1.80;;;20.20;39.10;;;;;;5050693;28;20453;-84
2023/03/21 12:20:25;;;;;;;6.27;1.90;;;20.10;38.30;;;;;;5051249;28;20561;-84
2023/03/21 12:23:06;;;;;;;2.70;1.67;;;20.00;38.20;;;;;;5051278;28;20456;-85
2023/03/21 12:25:40;;;;;;;3.60;1.70;;;20.00;38.80;;;;;;5054176;28;20468;-84
2023/03/21 12:28:24;;;;;;;6.13;1.80;;;20.10;39.40;;;;;;5026728;28;20456;-84
2023/03/21 12:31:00;;;;;;;3.43;1.90;;;20.10;38.80;;;;;;5024591;28;20459;-86
2023/03/21 12:33:44;;;;;;;3.80;1.83;;;19.80;38.10;;;;;;5046138;28;20519;-85
2023/03/21 12:36:26;;;;;;;3.20;1.93;;;19.40;38.70;;;;;;5029627;28;20473;-85
2023/03/21 12:39:02;;;;;;;2.30;2.10;;;19.50;39.40;;;;;;5038722;28;20483;-85
2023/03/21 12:41:34;;;;;;;1.63;1.53;;;19.50;39.70;;;;;;5069187;28;20447;-85
2023/03/21 12:44:04;;;;;;;2.97;1.90;;;19.70;38.50;;;;;;5069391;28;20443;-85
2023/03/21 12:46:36;;;;;;;2.43;1.60;;;19.80;38.70;;;;;;5043542;28;20461;-85
2023/03/21 12:49:13;;;;;;;4.30;1.53;;;20.00;38.50;;;;;;5035227;28;20460;-84
2023/03/21 12:51:44;;;;;;;1.83;1.43;;;20.00;37.90;;;;;;5065322;28;20570;-85
2023/03/21 12:54:23;;;;;;;3.33;1.77;;;19.90;37.80;;;;;;5069002;28;20977;-85
2023/03/21 12:56:54;;;;;;;5.03;1.90;;;19.90;38.00;;;;;;5040963;28;20464;-85
2023/03/21 12:59:30;;;;;;;3.33;1.70;;;19.90;38.70;;;;;;5028382;28;20448;-85
2023/03/21 13:02:04;;;;;;;2.77;1.93;;;19.90;39.00;;;;;;5051890;28;20452;-85
2023/03/21 13:04:43;;;;;;;4.07;1.67;;;19.70;37.70;;;;;;5059931;28;21111;-85
2023/03/21 13:07:18;;;;;;;2.67;1.80;;;19.30;39.00;;;;;;5043266;28;20445;-84
2023/03/21 13:09:46;;;;;;;1.93;1.70;;;19.20;39.90;;;;;;5041558;28;20850;-85